Terminal Aerodrome Forecast
Issued by NWS Sterling, VA

Home | Current Version | Previous Version | Text Only | Print | Product List | Glossary On
Versions: 1 2 3 4 5 6 7 8 9 10 11 12 13
000
FTUS41 KLWX 262340
TAFCHO
TAF
KCHO 262340Z 2700/2724 20004KT P6SM BKN045 OVC050
     FM271300 20006KT P6SM SCT050 BKN080
     FM271600 20007KT 6SM -SHRA BKN080 BKN100=

USA.gov is the U.S. government's official web portal to all federal, state and local government web resources and services.